Time;durP1;ratioP1;P1;durP2;ratioP2;P2;SDS_P1;SDS_P2;PMS_P1;PMS_P2;Temp;Humidity;BMP_temperature;BMP_pressure;BME280_temperature;BME280_humidity;BME280_pressure;Samples;Min_cycle;Max_cycle;Signal;HPM_P1;HPM_P2
2023/04/13 00:00:13;;;;;;;0.70;0.70;;;;;;;6.19;100.00;97676.66;5069706;28;20200;-80
2023/04/13 00:02:45;;;;;;;2.73;0.83;;;;;;;6.22;100.00;97680.84;5074875;28;20230;-80
2023/04/13 00:05:13;;;;;;;1.53;0.93;;;;;;;6.18;100.00;97680.22;5069931;28;20675;-80
2023/04/13 00:07:42;;;;;;;0.93;0.80;;;;;;;5.92;100.00;97689.06;5065877;28;20239;-79
2023/04/13 00:10:10;;;;;;;1.63;1.00;;;;;;;5.88;100.00;97691.00;5070309;28;20246;-80
2023/04/13 00:12:39;;;;;;;1.60;0.93;;;;;;;5.77;100.00;97684.81;5071756;28;20709;-80
2023/04/13 00:15:09;;;;;;;2.70;1.20;;;;;;;5.80;100.00;97682.84;5073596;28;20196;-80
2023/04/13 00:17:37;;;;;;;2.23;1.20;;;;;;;5.68;100.00;97681.03;5029866;28;20185;-80
2023/04/13 00:20:12;;;;;;;2.70;1.60;;;;;;;5.67;100.00;97689.84;5024756;28;20197;-80
2023/04/13 00:22:41;;;;;;;2.27;1.60;;;;;;;5.57;100.00;97692.25;5030492;28;20193;-80
2023/04/13 00:25:13;;;;;;;3.70;1.43;;;;;;;5.46;100.00;97692.16;5027586;28;20206;-80
2023/04/13 00:27:42;;;;;;;3.40;1.90;;;;;;;5.57;100.00;97688.78;5030439;28;20198;-80
2023/04/13 00:30:14;;;;;;;2.53;1.77;;;;;;;5.55;100.00;97688.06;5028839;28;20287;-80
2023/04/13 00:32:44;;;;;;;3.70;1.70;;;;;;;5.51;100.00;97690.06;5025050;28;20249;-80
2023/04/13 00:35:17;;;;;;;2.47;1.93;;;;;;;5.49;100.00;97696.34;5042617;28;20328;-80
2023/04/13 00:37:47;;;;;;;2.93;2.10;;;;;;;5.49;100.00;97691.09;5069844;28;20207;-80
2023/04/13 00:40:16;;;;;;;3.27;2.07;;;;;;;5.46;100.00;97702.66;5071387;28;20193;-80
2023/04/13 00:42:46;;;;;;;3.37;1.90;;;;;;;5.49;100.00;97694.56;5071216;28;20204;-80
2023/04/13 00:45:14;;;;;;;1.77;1.67;;;;;;;5.43;100.00;97690.56;5072904;28;20192;-80
2023/04/13 00:47:46;;;;;;;3.40;1.73;;;;;;;5.49;100.00;97691.09;5070349;28;20196;-79
2023/04/13 00:50:19;;;;;;;2.07;1.60;;;;;;;5.53;100.00;97685.53;5070937;28;20228;-80
2023/04/13 00:52:47;;;;;;;3.17;1.70;;;;;;;5.45;100.00;97683.44;5074074;28;20262;-80
2023/04/13 00:55:19;;;;;;;3.07;1.40;;;;;;;5.51;100.00;97690.06;5067719;28;20218;-80
2023/04/13 00:57:51;;;;;;;2.47;1.30;;;;;;;5.57;100.00;97681.75;5070914;28;20204;-80
2023/04/13 01:00:23;;;;;;;4.43;1.70;;;;;;;5.60;100.00;97686.00;5067654;28;20674;-80
2023/04/13 01:02:52;;;;;;;2.53;1.70;;;;;;;5.67;100.00;97681.97;5038664;28;20260;-80
2023/04/13 01:05:24;;;;;;;4.87;1.63;;;;;;;5.65;100.00;97683.88;5071032;28;20184;-80
2023/04/13 01:08:02;;;;;;;4.23;1.50;;;;;;;5.65;100.00;97671.56;5071017;28;20325;-80
2023/04/13 01:10:36;;;;;;;2.63;1.83;;;;;;;5.65;100.00;97671.56;5068150;28;20387;-80
2023/04/13 01:13:11;;;;;;;3.20;1.73;;;;;;;5.58;100.00;97672.09;5073277;28;20351;-80
2023/04/13 01:15:45;;;;;;;3.23;1.60;;;;;;;5.53;100.00;97664.53;5072318;28;20345;-79
2023/04/13 01:18:15;;;;;;;4.57;1.70;;;;;;;5.46;100.00;97665.88;5065507;28;20201;-80
2023/04/13 01:20:48;;;;;;;4.03;1.80;;;;;;;5.47;100.00;97659.69;5073500;28;20224;-80
2023/04/13 01:23:27;;;;;;;1.63;1.30;;;;;;;5.52;100.00;97670.75;5067054;28;20235;-80
2023/04/13 01:25:59;;;;;;;3.20;1.43;;;;;;;5.51;100.00;97669.06;5072935;28;20204;-80
2023/04/13 01:28:31;;;;;;;3.87;1.60;;;;;;;5.55;100.00;97664.44;5073307;28;20206;-81
2023/04/13 01:31:00;;;;;;;2.47;1.67;;;;;;;5.50;100.00;97670.00;5087312;28;20200;-80
2023/04/13 01:33:32;;;;;;;3.90;1.97;;;;;;;5.43;100.00;97666.94;5067935;28;20220;-80
2023/04/13 01:36:02;;;;;;;2.93;1.80;;;;;;;5.48;100.00;97669.25;5068207;28;20671;-80
2023/04/13 01:38:30;;;;;;;2.33;1.83;;;;;;;5.39;100.00;97670.69;5068870;28;20190;-80
2023/04/13 01:40:58;;;;;;;5.00;1.80;;;;;;;5.43;100.00;97666.09;5070326;28;20231;-80
2023/04/13 01:43:29;;;;;;;4.40;1.97;;;;;;;5.44;100.00;97659.91;5065862;28;20238;-80
2023/04/13 01:46:02;;;;;;;3.57;1.70;;;;;;;5.38;100.00;97662.94;5067478;28;20201;-79
2023/04/13 01:48:37;;;;;;;3.00;1.50;;;;;;;5.48;100.00;97666.63;5071348;28;20214;-80
2023/04/13 01:51:12;;;;;;;2.57;1.43;;;;;;;5.49;100.00;97657.81;5070453;28;20196;-79
2023/04/13 01:53:47;;;;;;;7.23;1.40;;;;;;;5.48;100.00;97658.75;5069142;28;20244;-80
2023/04/13 01:56:18;;;;;;;3.40;1.43;;;;;;;5.46;100.00;97661.47;5070036;28;20203;-80
2023/04/13 01:58:50;;;;;;;2.17;1.30;;;;;;;5.52;100.00;97648.91;5072938;28;20192;-80
2023/04/13 02:01:18;;;;;;;3.90;1.23;;;;;;;5.53;100.00;97640.06;5066613;28;20200;-79
2023/04/13 02:03:47;;;;;;;3.43;1.37;;;;;;;5.52;100.00;97639.22;5072661;28;20353;-80
2023/04/13 02:06:16;;;;;;;2.43;1.17;;;;;;;5.44;100.00;97636.28;5069415;28;20686;-80
2023/04/13 02:08:44;;;;;;;1.90;1.30;;;;;;;5.51;100.00;97640.19;5073048;28;20197;-80
2023/04/13 02:11:12;;;;;;;2.33;1.20;;;;;;;5.49;100.00;97652.53;5065670;28;20196;-80
2023/04/13 02:13:41;;;;;;;2.67;1.40;;;;;;;5.50;100.00;97638.50;5067292;28;20215;-80
2023/04/13 02:16:11;;;;;;;3.43;1.37;;;;;;;5.60;100.00;97644.81;5064328;28;20245;-80
2023/04/13 02:18:39;;;;;;;5.20;1.30;;;;;;;5.55;100.00;97640.81;5072911;28;20208;-80
2023/04/13 02:21:10;;;;;;;3.00;1.57;;;;;;;5.67;100.00;97637.31;5062950;28;20657;-80
2023/04/13 02:23:40;;;;;;;3.13;1.30;;;;;;;5.63;100.00;97639.34;5072759;28;20192;-80
2023/04/13 02:26:08;;;;;;;3.93;1.13;;;;;;;5.69;100.00;97638.94;5072869;28;20704;-80
2023/04/13 02:28:37;;;;;;;1.60;1.17;;;;;;;5.69;100.00;97638.94;5069925;28;20322;-80
2023/04/13 02:31:05;;;;;;;5.33;0.97;;;;;;;5.72;100.00;97633.44;5068958;28;20200;-80
2023/04/13 02:33:36;;;;;;;1.37;0.93;;;;;;;5.83;100.00;97631.88;5069791;28;20269;-81
2023/04/13 02:36:05;;;;;;;2.33;1.00;;;;;;;5.76;100.00;97641.94;5072684;28;20192;-80
2023/04/13 02:38:36;;;;;;;2.17;0.90;;;;;;;5.80;100.00;97637.34;5066527;28;20235;-80
2023/04/13 02:41:05;;;;;;;2.57;1.20;;;;;;;5.84;100.00;97639.63;5072534;28;20194;-80
2023/04/13 02:43:34;;;;;;;4.53;1.03;;;;;;;5.78;100.00;97640.06;5065742;28;20197;-80
2023/04/13 02:46:03;;;;;;;3.13;1.20;;;;;;;5.81;100.00;97642.50;5071478;28;20206;-80
2023/04/13 02:48:31;;;;;;;2.13;1.07;;;;;;;5.74;100.00;97631.56;5068153;28;20203;-80
2023/04/13 02:51:01;;;;;;;2.23;1.20;;;;;;;5.75;100.00;97627.13;5069410;28;20201;-80
2023/04/13 02:53:30;;;;;;;2.70;0.97;;;;;;;5.77;100.00;97630.50;5068994;28;20269;-80
2023/04/13 02:55:58;;;;;;;5.07;1.00;;;;;;;5.84;100.00;97633.53;5072609;28;20250;-80
2023/04/13 02:58:26;;;;;;;2.93;0.90;;;;;;;5.75;100.00;97627.97;5062547;28;20200;-80
2023/04/13 03:00:55;;;;;;;3.30;1.20;;;;;;;5.79;100.00;97638.25;5065640;28;20200;-80
2023/04/13 03:03:23;;;;;;;2.33;1.30;;;;;;;5.81;100.00;97626.72;5069444;28;20256;-80
2023/04/13 03:05:52;;;;;;;3.20;1.30;;;;;;;5.83;100.00;97627.44;5069417;28;20231;-80
2023/04/13 03:08:22;;;;;;;3.33;0.90;;;;;;;5.79;100.00;97633.88;5067078;28;20197;-80
2023/04/13 03:10:53;;;;;;;3.47;1.00;;;;;;;5.76;100.00;97626.19;5063678;28;20200;-80
2023/04/13 03:13:21;;;;;;;1.93;0.80;;;;;;;5.87;100.00;97636.78;5075918;28;20208;-80
2023/04/13 03:15:49;;;;;;;2.33;0.80;;;;;;;5.87;100.00;97634.16;5070139;28;20201;-80
2023/04/13 03:18:18;;;;;;;3.93;1.17;;;;;;;5.80;100.00;97629.47;5072880;28;20201;-80
2023/04/13 03:20:46;;;;;;;3.40;1.10;;;;;;;5.84;100.00;97631.75;5065858;28;20385;-80
2023/04/13 03:23:15;;;;;;;2.40;0.90;;;;;;;5.85;100.00;97635.22;5066738;28;20196;-80
2023/04/13 03:25:44;;;;;;;2.47;1.07;;;;;;;5.79;100.00;97639.13;5075918;28;20207;-80
2023/04/13 03:28:12;;;;;;;2.37;1.10;;;;;;;5.90;100.00;97641.88;5062901;28;20204;-80
2023/04/13 03:30:40;;;;;;;3.40;1.00;;;;;;;5.71;100.00;97644.06;5074283;28;20199;-80
2023/04/13 03:33:08;;;;;;;4.07;1.20;;;;;;;5.79;100.00;97643.50;5070039;28;20220;-80
2023/04/13 03:35:36;;;;;;;5.43;1.50;;;;;;;5.81;100.00;97636.41;5068788;28;20265;-80
2023/04/13 03:38:05;;;;;;;3.80;1.20;;;;;;;5.79;100.00;97630.38;5075599;28;20717;-79
2023/04/13 03:40:33;;;;;;;2.57;1.10;;;;;;;5.91;100.00;97630.44;5075398;28;20204;-80
2023/04/13 03:43:03;;;;;;;2.60;1.00;;;;;;;6.00;100.00;97623.69;5071348;28;20201;-80
2023/04/13 03:45:33;;;;;;;3.43;1.20;;;;;;;6.02;100.00;97629.66;5065195;28;20302;-80
2023/04/13 03:48:01;;;;;;;3.63;1.10;;;;;;;6.17;100.00;97630.38;5075118;28;20201;-80
2023/04/13 03:50:30;;;;;;;2.43;1.07;;;;;;;6.12;100.00;97629.88;5072228;28;20200;-80
2023/04/13 03:52:58;;;;;;;5.70;1.30;;;;;;;6.06;100.00;97636.38;5072422;28;20192;-80
2023/04/13 03:55:26;;;;;;;3.40;1.13;;;;;;;6.05;100.00;97632.06;5072335;28;20200;-80
2023/04/13 03:57:55;;;;;;;3.17;1.53;;;;;;;6.13;100.00;97639.44;5065885;28;20285;-80
2023/04/13 04:00:25;;;;;;;4.43;0.87;;;;;;;6.24;100.00;97631.63;5068925;28;20192;-78
2023/04/13 04:02:53;;;;;;;4.43;1.20;;;;;;;6.20;100.00;97628.38;5072015;28;20224;-78
2023/04/13 04:05:22;;;;;;;3.03;1.13;;;;;;;6.20;100.00;97631.00;5070622;28;20238;-78
2023/04/13 04:07:52;;;;;;;3.83;1.10;;;;;;;6.21;100.00;97626.59;5066978;28;20212;-78
2023/04/13 04:10:20;;;;;;;4.03;1.30;;;;;;;6.25;100.00;97623.63;5074753;28;20231;-78
2023/04/13 04:12:48;;;;;;;5.63;1.47;;;;;;;6.31;100.00;97624.97;5071837;28;20192;-78
2023/04/13 04:15:16;;;;;;;3.70;1.03;;;;;;;6.24;100.00;97621.94;5066174;28;20308;-77
2023/04/13 04:17:46;;;;;;;4.23;1.30;;;;;;;6.39;100.00;97624.44;5067522;28;20198;-77
2023/04/13 04:20:15;;;;;;;6.80;1.27;;;;;;;6.39;100.00;97611.28;5071823;28;20648;-77
2023/04/13 04:22:43;;;;;;;4.50;1.50;;;;;;;6.46;100.00;97623.88;5071927;28;20196;-77
2023/04/13 04:25:11;;;;;;;6.00;1.03;;;;;;;6.35;100.00;97612.44;5074398;28;20188;-78
2023/04/13 04:27:40;;;;;;;4.83;2.10;;;;;;;6.50;100.00;97614.81;5064524;28;20220;-78
2023/04/13 04:30:09;;;;;;;8.17;2.00;;;;;;;6.51;100.00;97613.03;5068542;28;20250;-78
2023/04/13 04:32:39;;;;;;;6.03;1.43;;;;;;;6.52;100.00;97620.81;5030507;28;20670;-78
2023/04/13 04:35:11;;;;;;;4.83;1.50;;;;;;;6.58;100.00;97615.09;5068099;28;20219;-80
2023/04/13 04:37:40;;;;;;;4.17;1.37;;;;;;;6.52;100.00;97623.44;5074239;28;20192;-78
2023/04/13 04:40:09;;;;;;;6.03;1.10;;;;;;;6.53;100.00;97624.28;5074367;28;20197;-78
2023/04/13 04:42:37;;;;;;;5.50;1.30;;;;;;;6.48;100.00;97627.25;5074246;28;20198;-78
2023/04/13 04:45:07;;;;;;;5.23;1.40;;;;;;;6.57;100.00;97631.00;5072885;28;20226;-78
2023/04/13 04:47:40;;;;;;;2.47;1.17;;;;;;;6.59;100.00;97637.00;5060957;28;20200;-78
2023/04/13 04:50:16;;;;;;;3.67;1.40;;;;;;;6.54;100.00;97647.00;5073893;28;20284;-79
2023/04/13 04:52:44;;;;;;;5.87;1.90;;;;;;;6.67;100.00;97654.84;5071853;28;20200;-78
2023/04/13 04:55:12;;;;;;;6.20;1.50;;;;;;;6.61;100.00;97656.13;5069094;28;20348;-78
2023/04/13 04:57:42;;;;;;;3.77;1.60;;;;;;;6.68;100.00;97661.78;5070024;28;20231;-78
2023/04/13 05:00:14;;;;;;;5.37;1.40;;;;;;;6.75;100.00;97658.59;5065384;28;20231;-78
2023/04/13 05:02:45;;;;;;;7.87;1.63;;;;;;;6.66;100.00;97666.31;5064955;28;20242;-80
2023/04/13 05:05:15;;;;;;;4.20;1.20;;;;;;;6.65;100.00;97667.25;5073839;28;20667;-79
2023/04/13 05:07:43;;;;;;;3.57;1.17;;;;;;;6.77;100.00;97666.38;5040323;28;20201;-78
2023/04/13 05:10:12;;;;;;;5.43;1.30;;;;;;;6.75;100.00;97668.28;5074645;28;20199;-80
2023/04/13 05:12:40;;;;;;;5.87;1.20;;;;;;;6.77;100.00;97669.03;5025656;28;20228;-78
2023/04/13 05:15:10;;;;;;;3.63;1.20;;;;;;;6.75;100.00;97669.09;5027411;28;20283;-80
2023/04/13 05:17:40;;;;;;;6.93;1.30;;;;;;;6.79;100.00;97664.47;5028382;28;20240;-78
2023/04/13 05:20:09;;;;;;;5.10;1.30;;;;;;;6.93;100.00;97668.72;5029934;28;20671;-77
2023/04/13 05:22:39;;;;;;;5.20;1.37;;;;;;;6.88;100.00;97666.44;4986942;28;20217;-78
2023/04/13 05:25:08;;;;;;;6.00;1.23;;;;;;;6.84;100.00;97678.13;4954691;28;20246;-78
2023/04/13 05:27:36;;;;;;;5.77;1.23;;;;;;;6.84;100.00;97673.69;4984671;28;20207;-78
2023/04/13 05:30:05;;;;;;;6.57;1.63;;;;;;;6.90;100.00;97677.69;4988863;28;20658;-78
2023/04/13 05:32:34;;;;;;;5.17;1.73;;;;;;;6.83;100.00;97685.19;5031398;28;20201;-78
2023/04/13 05:35:03;;;;;;;5.17;1.30;;;;;;;6.85;100.00;97672.78;5030843;28;20249;-78
2023/04/13 05:37:31;;;;;;;8.63;1.77;;;;;;;6.86;100.00;97682.34;5031192;28;20200;-78
2023/04/13 05:40:01;;;;;;;4.73;1.10;;;;;;;6.88;100.00;97676.97;5029779;28;20259;-78
2023/04/13 05:42:29;;;;;;;6.10;1.60;;;;;;;6.87;100.00;97676.13;5030842;28;20194;-78
2023/04/13 05:44:57;;;;;;;5.33;1.40;;;;;;;7.04;100.00;97685.41;5027288;28;20197;-78
2023/04/13 05:47:26;;;;;;;8.07;1.47;;;;;;;6.99;100.00;97678.81;5054440;28;20200;-78
2023/04/13 05:49:54;;;;;;;5.27;1.50;;;;;;;7.14;100.00;97685.56;5072900;28;20196;-79
2023/04/13 05:52:22;;;;;;;4.90;1.40;;;;;;;7.09;100.00;97693.81;5072881;28;20231;-78
2023/04/13 05:54:51;;;;;;;4.77;1.20;;;;;;;7.00;100.00;97689.22;5069033;28;20262;-78
2023/04/13 05:57:20;;;;;;;2.53;1.20;;;;;;;7.10;100.00;97698.13;5070125;28;20235;-77
2023/04/13 05:59:50;;;;;;;3.60;1.10;;;;;;;7.10;100.00;97699.91;5066402;28;20238;-78
2023/04/13 06:02:19;;;;;;;4.37;1.30;;;;;;;7.06;100.00;97685.31;5072949;28;20596;-78
2023/04/13 06:04:47;;;;;;;8.10;1.20;;;;;;;7.11;100.00;97694.53;5068806;28;20234;-78
2023/04/13 06:07:16;;;;;;;4.37;1.43;;;;;;;7.18;100.00;97690.50;5064560;28;20227;-78
2023/04/13 06:09:44;;;;;;;8.10;1.57;;;;;;;7.16;100.00;97691.59;5064775;28;20253;-78
2023/04/13 06:12:14;;;;;;;5.27;1.43;;;;;;;7.18;100.00;97692.31;5069798;28;20242;-77
2023/04/13 06:14:44;;;;;;;5.80;1.60;;;;;;;7.20;100.00;97695.66;5067554;28;20220;-77
2023/04/13 06:17:12;;;;;;;3.93;1.17;;;;;;;7.27;100.00;97696.91;5072690;28;20230;-78
2023/04/13 06:19:40;;;;;;;12.00;1.60;;;;;;;7.22;100.00;97703.44;5069947;28;20231;-78
2023/04/13 06:22:09;;;;;;;5.50;1.20;;;;;;;7.24;100.00;97702.41;5072672;28;20200;-78
2023/04/13 06:24:37;;;;;;;7.47;1.63;;;;;;;7.33;100.00;97700.84;5067161;28;20204;-78
2023/04/13 06:27:05;;;;;;;5.33;1.70;;;;;;;7.35;100.00;97709.50;5065887;28;20211;-79
2023/04/13 06:29:35;;;;;;;6.97;1.63;;;;;;;7.31;100.00;97718.56;5067474;28;20199;-76
2023/04/13 06:32:05;;;;;;;7.30;1.60;;;;;;;7.38;100.00;97728.53;5060778;28;20200;-77
2023/04/13 06:34:34;;;;;;;5.57;1.53;;;;;;;7.36;100.00;97713.81;5065137;28;20188;-77
2023/04/13 06:37:03;;;;;;;4.67;1.60;;;;;;;7.40;100.00;97729.25;5069952;28;20279;-78
2023/04/13 06:39:36;;;;;;;5.87;1.60;;;;;;;7.51;100.00;97717.06;5068636;28;20309;-77
2023/04/13 06:42:05;;;;;;;4.07;1.40;;;;;;;7.54;100.00;97719.50;5068611;28;20287;-77
2023/04/13 06:44:33;;;;;;;6.53;1.43;;;;;;;7.49;100.00;97717.19;5051645;28;20267;-80
2023/04/13 06:47:01;;;;;;;4.93;1.60;;;;;;;7.56;100.00;97722.84;5069973;28;20220;-78
2023/04/13 06:49:34;;;;;;;8.73;1.97;;;;;;;7.66;100.00;97721.22;5076571;28;20196;-77
2023/04/13 06:52:02;;;;;;;4.33;1.50;;;;;;;7.68;100.00;97727.19;5076268;28;20326;-78
2023/04/13 06:54:30;;;;;;;4.53;1.70;;;;;;;7.75;100.00;97734.53;5076125;28;20196;-79
2023/04/13 06:57:00;;;;;;;7.73;2.00;;;;;;;7.57;100.00;97733.28;5071101;28;20242;-79
2023/04/13 06:59:28;;;;;;;6.50;1.60;;;;;;;7.71;100.00;97732.22;5072468;28;20266;-80
2023/04/13 07:01:56;;;;;;;6.00;1.67;;;;;;;7.63;100.00;97732.00;5071903;28;20269;-78
2023/04/13 07:04:25;;;;;;;4.67;1.43;;;;;;;7.62;100.00;97719.75;5073012;28;20237;-78
2023/04/13 07:06:59;;;;;;;5.63;2.00;;;;;;;7.61;100.00;97754.94;5073583;28;20220;-79
2023/04/13 07:09:27;;;;;;;7.23;1.70;;;;;;;7.62;100.00;97749.56;5075950;28;20632;-78
2023/04/13 07:11:56;;;;;;;5.23;1.50;;;;;;;7.61;100.00;97757.59;5075806;28;20655;-77
2023/04/13 07:14:25;;;;;;;4.70;1.83;;;;;;;7.70;100.00;97763.00;5068439;28;20651;-77
2023/04/13 07:16:53;;;;;;;5.77;1.37;;;;;;;7.75;100.00;97762.69;5066765;28;20679;-79
2023/04/13 07:19:22;;;;;;;5.43;1.70;;;;;;;7.67;100.00;97768.53;5075855;28;20200;-79
2023/04/13 07:21:50;;;;;;;4.97;1.80;;;;;;;7.55;100.00;97753.63;5068377;28;20235;-79
2023/04/13 07:24:20;;;;;;;5.90;1.60;;;;;;;7.68;100.00;97757.03;5071999;28;20200;-77
2023/04/13 07:26:48;;;;;;;5.40;1.70;;;;;;;7.73;100.00;97761.97;5075501;28;20196;-77
2023/04/13 07:29:16;;;;;;;7.00;1.77;;;;;;;7.72;100.00;97761.13;5072777;28;20196;-79
2023/04/13 07:31:46;;;;;;;7.03;1.90;;;;;;;7.76;100.00;97756.47;5074438;28;20196;-76
2023/04/13 07:34:15;;;;;;;7.80;1.70;;;;;;;7.77;100.00;97771.31;5075458;28;20203;-80
2023/04/13 07:36:43;;;;;;;8.33;2.03;;;;;;;7.83;100.00;97772.66;5075645;28;20244;-80
2023/04/13 07:39:11;;;;;;;5.60;1.47;;;;;;;7.72;100.00;97786.59;5072476;28;20258;-80
2023/04/13 07:41:41;;;;;;;5.93;1.60;;;;;;;7.84;100.00;97784.88;5075591;28;20265;-79
2023/04/13 07:44:10;;;;;;;5.80;1.63;;;;;;;7.90;100.00;97787.03;5069658;28;20238;-79
2023/04/13 07:46:38;;;;;;;7.30;1.73;;;;;;;7.78;100.00;97790.59;5064161;28;20246;-77
2023/04/13 07:49:07;;;;;;;9.87;1.90;;;;;;;7.86;100.00;97809.31;5072298;28;20276;-78
2023/04/13 07:51:35;;;;;;;5.20;1.70;;;;;;;7.86;100.00;97791.72;5074974;28;20211;-77
2023/04/13 07:54:03;;;;;;;7.03;2.17;;;;;;;7.94;100.00;97791.13;5068177;28;20192;-80
2023/04/13 07:56:35;;;;;;;5.23;1.50;;;;;;;7.96;100.00;97794.50;5069915;28;20220;-77
2023/04/13 07:59:04;;;;;;;5.33;1.67;;;;;;;8.11;100.00;97803.91;5070929;28;20275;-78
2023/04/13 08:01:33;;;;;;;5.37;1.20;;;;;;;8.14;100.00;97797.53;5065868;28;20666;-78
2023/04/13 08:04:01;;;;;;;7.50;1.80;;;;;;;8.24;100.00;97803.78;5070570;28;20687;-78
2023/04/13 08:06:30;;;;;;;7.90;1.97;;;;;;;8.20;100.00;97807.59;5069470;28;20265;-78
2023/04/13 08:08:59;;;;;;;6.83;2.00;;;;;;;8.23;100.00;97808.22;5024042;28;20210;-77
2023/04/13 08:11:27;;;;;;;7.23;1.60;;;;;;;8.23;100.00;97815.31;5072151;28;20702;-77
2023/04/13 08:13:55;;;;;;;6.60;1.60;;;;;;;8.25;100.00;97816.84;5074927;28;20250;-77
2023/04/13 08:16:25;;;;;;;5.10;1.80;;;;;;;8.21;100.00;97820.69;5070768;28;20220;-77
2023/04/13 08:18:53;;;;;;;6.93;2.13;;;;;;;8.11;100.00;97821.50;5052884;28;20220;-77
2023/04/13 08:21:21;;;;;;;9.40;1.93;;;;;;;8.20;100.00;97832.22;5074504;28;20218;-77
2023/04/13 08:23:50;;;;;;;9.80;1.83;;;;;;;8.24;100.00;97822.25;5069022;28;20250;-77
2023/04/13 08:26:19;;;;;;;10.20;1.97;;;;;;;8.13;100.00;97841.53;5071851;28;20204;-78
2023/04/13 08:28:48;;;;;;;4.03;1.57;;;;;;;8.18;100.00;97842.00;5070852;28;20272;-77
2023/04/13 08:31:16;;;;;;;3.17;1.37;;;;;;;8.27;100.00;97832.56;5070038;28;20200;-78
2023/04/13 08:33:46;;;;;;;5.93;1.70;;;;;;;8.12;100.00;97849.56;5074429;28;20200;-78
2023/04/13 08:36:16;;;;;;;5.43;1.67;;;;;;;8.28;100.00;97848.25;5066600;28;20262;-77
2023/04/13 08:38:45;;;;;;;8.10;2.20;;;;;;;8.26;100.00;97847.53;5066821;28;20192;-78
2023/04/13 08:41:14;;;;;;;5.90;2.07;;;;;;;8.24;100.00;97853.91;5070130;28;20245;-78
2023/04/13 08:43:46;;;;;;;8.03;2.63;;;;;;;8.17;100.00;97858.78;5070037;28;20195;-77
2023/04/13 08:46:19;;;;;;;6.00;2.10;;;;;;;8.17;100.00;97861.44;5068725;28;20204;-77
2023/04/13 08:48:53;;;;;;;8.57;2.80;;;;;;;8.04;100.00;97873.84;5074072;28;20270;-77
2023/04/13 08:51:23;;;;;;;9.10;2.70;;;;;;;8.14;100.00;97852.91;5070540;28;20188;-77
2023/04/13 08:53:53;;;;;;;5.53;1.67;;;;;;;8.26;100.00;97859.91;5069066;28;20336;-77
2023/04/13 08:56:23;;;;;;;6.03;2.43;;;;;;;8.43;100.00;97866.56;5070065;28;20236;-77
2023/04/13 08:59:14;;;;;;;10.10;2.10;;;;;;;8.32;100.00;97868.19;5074322;28;20187;-77
2023/04/13 09:01:47;;;;;;;7.80;2.03;;;;;;;8.22;100.00;97869.00;5087642;28;20245;-77
2023/04/13 09:04:21;;;;;;;7.07;1.90;;;;;;;8.25;100.00;97879.31;5091498;28;20230;-77
2023/04/13 09:06:51;;;;;;;6.50;1.80;;;;;;;8.11;100.00;97869.81;5086417;28;20241;-77
2023/04/13 09:09:20;;;;;;;4.00;1.20;;;;;;;8.00;100.00;97885.56;5091451;28;20219;-77
2023/04/13 09:11:49;;;;;;;5.13;1.20;;;;;;;8.11;100.00;97890.06;5089274;28;20200;-78
2023/04/13 09:14:20;;;;;;;3.13;1.30;;;;;;;8.23;100.00;97892.63;5094040;28;20210;-77
2023/04/13 09:16:49;;;;;;;7.30;1.60;;;;;;;8.54;100.00;97887.69;5084977;28;20223;-78
2023/04/13 09:19:29;;;;;;;6.57;1.70;;;;;;;8.50;100.00;97894.19;5094121;28;20219;-78
2023/04/13 09:21:57;;;;;;;6.67;1.70;;;;;;;8.51;100.00;97912.53;5095419;28;20233;-77
2023/04/13 09:24:26;;;;;;;6.97;3.37;;;;;;;8.81;100.00;97904.06;5091770;28;20195;-78
2023/04/13 09:26:54;;;;;;;10.43;9.43;;;;;;;8.79;100.00;97905.16;5096157;28;20192;-77
2023/04/13 09:29:25;;;;;;;7.10;4.10;;;;;;;8.59;100.00;97907.50;5092008;28;20223;-77
2023/04/13 09:31:54;;;;;;;2.50;0.93;;;;;;;8.83;100.00;97914.50;5089996;28;20203;-77
2023/04/13 09:34:30;;;;;;;2.37;1.40;;;;;;;8.63;100.00;97897.56;5092890;28;20199;-76
2023/04/13 09:36:58;;;;;;;3.83;1.43;;;;;;;8.69;100.00;97902.38;5085741;28;20219;-78
2023/04/13 09:39:28;;;;;;;3.00;1.20;;;;;;;8.92;100.00;97886.56;5092267;28;20200;-78
2023/04/13 09:41:57;;;;;;;2.07;1.07;;;;;;;9.23;100.00;97893.75;5089281;28;20226;-77
2023/04/13 09:44:27;;;;;;;3.80;1.13;;;;;;;9.14;100.00;97891.81;5093479;28;20192;-78
2023/04/13 09:46:59;;;;;;;3.17;2.00;;;;;;;9.36;100.00;97889.19;5089610;28;20282;-77
2023/04/13 09:49:38;;;;;;;4.67;2.63;;;;;;;9.51;100.00;97895.03;5092151;28;20268;-77
2023/04/13 09:52:19;;;;;;;3.23;2.93;;;;;;;9.43;100.00;97889.53;5093510;28;20275;-77
2023/04/13 09:54:50;;;;;;;2.93;1.20;;;;;;;9.77;100.00;97898.25;5089806;28;20187;-77
2023/04/13 09:57:25;;;;;;;3.37;1.20;;;;;;;9.69;100.00;97895.38;5092722;28;20212;-78
2023/04/13 09:59:54;;;;;;;2.30;1.00;;;;;;;9.67;100.00;97892.88;5087605;28;20199;-78
2023/04/13 10:02:22;;;;;;;3.03;1.10;;;;;;;10.31;100.00;97892.88;5088061;28;20293;-78
2023/04/13 10:04:53;;;;;;;1.90;0.80;;;;;;;10.45;100.00;97899.69;5092766;28;20194;-78
2023/04/13 10:07:25;;;;;;;1.80;0.93;;;;;;;10.15;100.00;97884.53;5092574;28;20188;-78
2023/04/13 10:09:54;;;;;;;2.90;0.90;;;;;;;10.25;100.00;97882.84;5095568;28;20195;-78
2023/04/13 10:12:24;;;;;;;2.50;0.80;;;;;;;10.34;100.00;97885.69;5095275;28;20236;-77
2023/04/13 10:15:04;;;;;;;5.07;3.27;;;;;;;10.33;100.00;97882.19;5086414;28;20208;-78
2023/04/13 10:17:44;;;;;;;3.70;1.00;;;;;;;10.33;100.00;97884.84;5089807;28;20211;-80
2023/04/13 10:20:14;;;;;;;2.07;1.10;;;;;;;10.45;100.00;97881.16;5092781;28;20638;-80
2023/04/13 10:22:44;;;;;;;2.17;0.90;;;;;;;10.25;100.00;97880.19;5093282;28;20195;-80
2023/04/13 10:25:14;;;;;;;2.27;0.80;;;;;;;9.98;100.00;97869.19;5097193;28;20245;-80
2023/04/13 10:27:59;;;;;;;3.03;1.17;;;;;;;10.05;100.00;97888.91;5092756;28;20195;-79
2023/04/13 10:30:28;;;;;;;2.47;0.97;;;;;;;10.30;100.00;97888.56;5091304;28;20200;-80
2023/04/13 10:33:07;;;;;;;2.23;1.17;;;;;;;10.15;100.00;97886.34;5093390;28;20249;-80
2023/04/13 10:35:37;;;;;;;2.30;0.97;;;;;;;10.02;100.00;97891.78;5092257;28;20290;-80
2023/04/13 10:38:10;;;;;;;3.53;0.80;;;;;;;10.02;100.00;97894.41;5096990;28;20272;-80
2023/04/13 10:40:45;;;;;;;1.17;0.80;;;;;;;10.07;100.00;97894.91;5096874;28;20199;-80
2023/04/13 10:43:24;;;;;;;2.87;1.30;;;;;;;9.52;100.00;97904.66;5096763;28;20203;-78
2023/04/13 10:46:05;;;;;;;3.77;1.00;;;;;;;9.73;100.00;97910.00;5091956;28;20221;-79
2023/04/13 10:48:33;;;;;;;1.00;0.80;;;;;;;8.86;100.00;97919.53;5087792;28;20249;-79
2023/04/13 10:51:03;;;;;;;3.43;0.90;;;;;;;8.71;100.00;97934.78;5096772;28;20191;-80
2023/04/13 10:53:33;;;;;;;2.07;0.70;;;;;;;8.61;100.00;97933.78;5096704;28;20199;-80
2023/04/13 10:56:03;;;;;;;2.13;0.70;;;;;;;8.89;100.00;97911.41;5096998;28;20199;-80
2023/04/13 10:58:33;;;;;;;1.83;0.60;;;;;;;9.34;100.00;97906.94;5091028;28;20223;-80
2023/04/13 11:01:02;;;;;;;1.23;0.63;;;;;;;9.53;100.00;97906.31;5095490;28;20757;-80
2023/04/13 11:03:30;;;;;;;1.40;0.70;;;;;;;10.29;100.00;97902.75;5093430;28;20243;-80
2023/04/13 11:06:01;;;;;;;3.17;0.80;;;;;;;10.84;100.00;97905.25;5096329;28;20195;-80
2023/04/13 11:08:31;;;;;;;1.70;1.00;;;;;;;11.33;100.00;97899.19;5097226;28;20199;-79
2023/04/13 11:11:00;;;;;;;2.30;0.73;;;;;;;11.14;100.00;97904.41;5094409;28;20204;-80
2023/04/13 11:13:29;;;;;;;2.47;0.90;;;;;;;11.13;100.00;97902.75;5093208;28;20196;-80
2023/04/13 11:16:02;;;;;;;1.60;0.70;;;;;;;10.98;100.00;97912.00;5098976;28;20196;-80
2023/04/13 11:18:31;;;;;;;3.43;1.07;;;;;;;11.18;100.00;97913.75;5091338;28;20276;-80
2023/04/13 11:21:01;;;;;;;2.93;1.03;;;;;;;11.08;100.00;97910.22;5091416;28;20206;-80
2023/04/13 11:23:36;;;;;;;1.57;0.77;;;;;;;11.14;100.00;97902.59;5094006;28;20226;-80
2023/04/13 11:26:05;;;;;;;3.37;0.87;;;;;;;10.91;100.00;97908.22;5089725;28;20208;-80
2023/04/13 11:28:38;;;;;;;1.73;0.73;;;;;;;10.63;100.00;97915.00;5090525;28;20192;-80
2023/04/13 11:31:07;;;;;;;1.70;0.50;;;;;;;10.62;100.00;97910.69;5090302;28;20202;-80
2023/04/13 11:33:36;;;;;;;2.00;1.10;;;;;;;10.87;100.00;97912.91;5088954;28;20662;-80
2023/04/13 11:36:10;;;;;;;1.43;0.83;;;;;;;10.99;100.00;97909.22;5093205;28;20203;-80
2023/04/13 11:38:41;;;;;;;2.43;0.90;;;;;;;11.29;100.00;97912.84;5093120;28;20257;-80
2023/04/13 11:41:09;;;;;;;1.90;1.00;;;;;;;11.59;100.00;97904.03;5092921;28;20191;-80
2023/04/13 11:43:41;;;;;;;3.17;1.03;;;;;;;11.98;100.00;97900.50;5091556;28;20195;-80